sensor_id;sensor_type;location;lat;lon;timestamp;temperature;humidity
66086;DHT22;52868;49.758;9.586;2022-08-21T00:00:47;21.80;65.00
66086;DHT22;52868;49.758;9.586;2022-08-21T00:03:14;21.80;65.10
66086;DHT22;52868;49.758;9.586;2022-08-21T00:05:49;21.80;65.10
66086;DHT22;52868;49.758;9.586;2022-08-21T00:08:17;21.80;65.20
66086;DHT22;52868;49.758;9.586;2022-08-21T00:10:43;21.80;65.10
66086;DHT22;52868;49.758;9.586;2022-08-21T00:13:10;21.70;65.00
66086;DHT22;52868;49.758;9.586;2022-08-21T00:15:37;21.70;65.10
66086;DHT22;52868;49.758;9.586;2022-08-21T00:18:05;21.70;65.10
66086;DHT22;52868;49.758;9.586;2022-08-21T00:20:31;21.60;65.00
66086;DHT22;52868;49.758;9.586;2022-08-21T00:22:57;21.60;64.80
66086;DHT22;52868;49.758;9.586;2022-08-21T00:25:23;21.60;64.70
66086;DHT22;52868;49.758;9.586;2022-08-21T00:27:49;21.60;64.50
66086;DHT22;52868;49.758;9.586;2022-08-21T00:30:17;21.60;64.40
66086;DHT22;52868;49.758;9.586;2022-08-21T00:32:43;21.60;63.90
66086;DHT22;52868;49.758;9.586;2022-08-21T00:35:13;21.50;63.80
66086;DHT22;52868;49.758;9.586;2022-08-21T00:37:40;21.50;63.90
66086;DHT22;52868;49.758;9.586;2022-08-21T00:40:10;21.40;63.80
66086;DHT22;52868;49.758;9.586;2022-08-21T00:42:37;21.40;63.90
66086;DHT22;52868;49.758;9.586;2022-08-21T00:45:05;21.30;63.80
66086;DHT22;52868;49.758;9.586;2022-08-21T00:47:31;21.40;63.80
66086;DHT22;52868;49.758;9.586;2022-08-21T00:49:57;21.30;63.80
66086;DHT22;52868;49.758;9.586;2022-08-21T00:52:28;21.30;63.80
66086;DHT22;52868;49.758;9.586;2022-08-21T00:54:55;21.30;63.80
66086;DHT22;52868;49.758;9.586;2022-08-21T00:57:27;21.40;63.60
66086;DHT22;52868;49.758;9.586;2022-08-21T00:59:56;21.40;63.50
66086;DHT22;52868;49.758;9.586;2022-08-21T01:02:22;21.40;63.40
66086;DHT22;52868;49.758;9.586;2022-08-21T01:04:48;21.30;63.50
66086;DHT22;52868;49.758;9.586;2022-08-21T01:07:15;21.30;63.40
66086;DHT22;52868;49.758;9.586;2022-08-21T01:09:41;21.30;63.50
66086;DHT22;52868;49.758;9.586;2022-08-21T01:12:07;21.30;63.50
66086;DHT22;52868;49.758;9.586;2022-08-21T01:14:33;21.20;63.60
66086;DHT22;52868;49.758;9.586;2022-08-21T01:17:00;21.10;63.70
66086;DHT22;52868;49.758;9.586;2022-08-21T01:19:28;21.10;63.70
66086;DHT22;52868;49.758;9.586;2022-08-21T01:21:54;21.10;63.60
66086;DHT22;52868;49.758;9.586;2022-08-21T01:24:20;21.10;63.50
66086;DHT22;52868;49.758;9.586;2022-08-21T01:26:47;21.00;63.50
66086;DHT22;52868;49.758;9.586;2022-08-21T01:31:42;21.00;63.50
66086;DHT22;52868;49.758;9.586;2022-08-21T01:34:09;21.00;63.50
66086;DHT22;52868;49.758;9.586;2022-08-21T01:36:35;20.90;63.50
66086;DHT22;52868;49.758;9.586;2022-08-21T01:39:02;20.90;63.50
66086;DHT22;52868;49.758;9.586;2022-08-21T01:41:28;20.90;63.20
66086;DHT22;52868;49.758;9.586;2022-08-21T01:43:54;20.90;63.10
66086;DHT22;52868;49.758;9.586;2022-08-21T01:46:19;20.90;63.20
66086;DHT22;52868;49.758;9.586;2022-08-21T01:48:45;20.80;63.30
66086;DHT22;52868;49.758;9.586;2022-08-21T01:51:11;20.70;63.60
66086;DHT22;52868;49.758;9.586;2022-08-21T01:53:37;20.80;63.60
66086;DHT22;52868;49.758;9.586;2022-08-21T01:56:06;20.70;63.80
66086;DHT22;52868;49.758;9.586;2022-08-21T01:58:32;20.80;63.20
66086;DHT22;52868;49.758;9.586;2022-08-21T02:01:00;20.70;63.00
66086;DHT22;52868;49.758;9.586;2022-08-21T02:03:30;20.70;63.10
66086;DHT22;52868;49.758;9.586;2022-08-21T02:05:56;20.60;63.40
66086;DHT22;52868;49.758;9.586;2022-08-21T02:08:22;20.60;63.60
66086;DHT22;52868;49.758;9.586;2022-08-21T02:10:49;20.60;63.50
66086;DHT22;52868;49.758;9.586;2022-08-21T02:13:16;20.50;63.50
66086;DHT22;52868;49.758;9.586;2022-08-21T02:15:42;20.50;63.60
66086;DHT22;52868;49.758;9.586;2022-08-21T02:18:08;20.50;63.40
66086;DHT22;52868;49.758;9.586;2022-08-21T02:20:38;20.40;63.70
66086;DHT22;52868;49.758;9.586;2022-08-21T02:23:05;20.40;63.80
66086;DHT22;52868;49.758;9.586;2022-08-21T02:25:32;20.40;63.80
66086;DHT22;52868;49.758;9.586;2022-08-21T02:27:59;20.30;63.80
66086;DHT22;52868;49.758;9.586;2022-08-21T02:30:28;20.40;63.20
66086;DHT22;52868;49.758;9.586;2022-08-21T02:32:55;20.30;63.40
66086;DHT22;52868;49.758;9.586;2022-08-21T02:35:21;20.30;63.70
66086;DHT22;52868;49.758;9.586;2022-08-21T02:37:52;20.30;63.30
66086;DHT22;52868;49.758;9.586;2022-08-21T02:40:22;20.30;63.20
66086;DHT22;52868;49.758;9.586;2022-08-21T02:42:49;20.30;63.30
66086;DHT22;52868;49.758;9.586;2022-08-21T02:45:16;20.40;62.40
66086;DHT22;52868;49.758;9.586;2022-08-21T02:47:54;20.30;62.50
66086;DHT22;52868;49.758;9.586;2022-08-21T02:50:29;20.30;62.80
66086;DHT22;52868;49.758;9.586;2022-08-21T02:52:56;20.30;62.70
66086;DHT22;52868;49.758;9.586;2022-08-21T02:55:24;20.30;62.50
66086;DHT22;52868;49.758;9.586;2022-08-21T02:57:52;20.30;62.70
66086;DHT22;52868;49.758;9.586;2022-08-21T03:00:19;20.20;63.00
66086;DHT22;52868;49.758;9.586;2022-08-21T03:02:47;20.20;63.30
66086;DHT22;52868;49.758;9.586;2022-08-21T03:05:14;20.10;63.40
66086;DHT22;52868;49.758;9.586;2022-08-21T03:07:41;20.10;63.50
66086;DHT22;52868;49.758;9.586;2022-08-21T03:10:07;20.00;63.70
66086;DHT22;52868;49.758;9.586;2022-08-21T03:12:33;20.10;63.80
66086;DHT22;52868;49.758;9.586;2022-08-21T03:15:03;20.10;63.00
66086;DHT22;52868;49.758;9.586;2022-08-21T03:17:29;20.10;62.30
66086;DHT22;52868;49.758;9.586;2022-08-21T03:19:55;20.00;62.50
66086;DHT22;52868;49.758;9.586;2022-08-21T03:22:20;20.00;63.10
66086;DHT22;52868;49.758;9.586;2022-08-21T03:24:46;20.00;63.10
66086;DHT22;52868;49.758;9.586;2022-08-21T03:27:12;20.00;63.00
66086;DHT22;52868;49.758;9.586;2022-08-21T03:29:38;20.00;63.00
66086;DHT22;52868;49.758;9.586;2022-08-21T03:32:04;20.00;63.10
66086;DHT22;52868;49.758;9.586;2022-08-21T03:34:30;19.90;63.50
66086;DHT22;52868;49.758;9.586;2022-08-21T03:36:56;19.80;63.70
66086;DHT22;52868;49.758;9.586;2022-08-21T03:39:21;19.80;63.90
66086;DHT22;52868;49.758;9.586;2022-08-21T03:41:47;19.80;63.90
66086;DHT22;52868;49.758;9.586;2022-08-21T03:44:13;19.80;64.00
66086;DHT22;52868;49.758;9.586;2022-08-21T03:46:39;19.70;64.00
66086;DHT22;52868;49.758;9.586;2022-08-21T03:49:06;19.70;64.00
66086;DHT22;52868;49.758;9.586;2022-08-21T03:51:31;19.70;63.90
66086;DHT22;52868;49.758;9.586;2022-08-21T03:53:59;19.80;63.10
66086;DHT22;52868;49.758;9.586;2022-08-21T03:56:25;19.80;63.20
66086;DHT22;52868;49.758;9.586;2022-08-21T03:58:50;19.80;63.50
66086;DHT22;52868;49.758;9.586;2022-08-21T04:01:16;19.80;63.70
66086;DHT22;52868;49.758;9.586;2022-08-21T04:03:41;19.70;63.90
66086;DHT22;52868;49.758;9.586;2022-08-21T04:06:07;19.60;64.00
66086;DHT22;52868;49.758;9.586;2022-08-21T04:08:34;19.60;64.10
66086;DHT22;52868;49.758;9.586;2022-08-21T04:11:00;19.60;64.10
66086;DHT22;52868;49.758;9.586;2022-08-21T04:13:26;19.60;64.10
66086;DHT22;52868;49.758;9.586;2022-08-21T04:15:54;19.60;64.10
66086;DHT22;52868;49.758;9.586;2022-08-21T04:18:19;19.60;64.00
66086;DHT22;52868;49.758;9.586;2022-08-21T04:20:48;19.50;64.00
66086;DHT22;52868;49.758;9.586;2022-08-21T04:23:15;19.50;64.00
66086;DHT22;52868;49.758;9.586;2022-08-21T04:25:40;19.50;64.10
66086;DHT22;52868;49.758;9.586;2022-08-21T04:28:06;19.40;64.30
66086;DHT22;52868;49.758;9.586;2022-08-21T04:30:33;19.60;63.40
66086;DHT22;52868;49.758;9.586;2022-08-21T04:32:59;19.70;62.40
66086;DHT22;52868;49.758;9.586;2022-08-21T04:35:27;19.70;62.20
66086;DHT22;52868;49.758;9.586;2022-08-21T04:37:52;19.60;62.40
66086;DHT22;52868;49.758;9.586;2022-08-21T04:40:19;19.50;62.60
66086;DHT22;52868;49.758;9.586;2022-08-21T04:42:48;19.70;62.30
66086;DHT22;52868;49.758;9.586;2022-08-21T04:45:19;19.60;62.30
66086;DHT22;52868;49.758;9.586;2022-08-21T04:47:48;19.50;62.60
66086;DHT22;52868;49.758;9.586;2022-08-21T04:50:13;19.50;62.90
66086;DHT22;52868;49.758;9.586;2022-08-21T04:52:39;19.40;63.00
66086;DHT22;52868;49.758;9.586;2022-08-21T04:55:05;19.40;63.20
66086;DHT22;52868;49.758;9.586;2022-08-21T04:57:31;19.50;63.20
66086;DHT22;52868;49.758;9.586;2022-08-21T04:59:57;19.40;63.30
66086;DHT22;52868;49.758;9.586;2022-08-21T05:02:23;19.30;63.80
66086;DHT22;52868;49.758;9.586;2022-08-21T05:04:51;19.40;63.40
66086;DHT22;52868;49.758;9.586;2022-08-21T05:07:22;19.40;63.40
66086;DHT22;52868;49.758;9.586;2022-08-21T05:09:49;19.40;63.60
66086;DHT22;52868;49.758;9.586;2022-08-21T05:12:15;19.40;63.70
66086;DHT22;52868;49.758;9.586;2022-08-21T05:14:42;19.40;63.70
66086;DHT22;52868;49.758;9.586;2022-08-21T05:17:08;19.40;63.80
66086;DHT22;52868;49.758;9.586;2022-08-21T05:19:34;19.50;63.70
66086;DHT22;52868;49.758;9.586;2022-08-21T05:21:59;19.50;63.80
66086;DHT22;52868;49.758;9.586;2022-08-21T05:24:26;19.50;63.90
66086;DHT22;52868;49.758;9.586;2022-08-21T05:26:52;19.50;64.10
66086;DHT22;52868;49.758;9.586;2022-08-21T05:29:18;19.50;64.40
66086;DHT22;52868;49.758;9.586;2022-08-21T05:31:45;19.60;64.10
66086;DHT22;52868;49.758;9.586;2022-08-21T05:34:11;19.70;64.30
66086;DHT22;52868;49.758;9.586;2022-08-21T05:36:37;19.70;64.10
66086;DHT22;52868;49.758;9.586;2022-08-21T05:39:03;19.80;64.10
66086;DHT22;52868;49.758;9.586;2022-08-21T05:41:28;19.80;64.20
66086;DHT22;52868;49.758;9.586;2022-08-21T05:43:54;19.80;64.30
66086;DHT22;52868;49.758;9.586;2022-08-21T05:46:20;19.80;64.30
66086;DHT22;52868;49.758;9.586;2022-08-21T05:48:45;19.90;64.40
66086;DHT22;52868;49.758;9.586;2022-08-21T05:51:14;19.90;64.50
66086;DHT22;52868;49.758;9.586;2022-08-21T05:53:41;19.90;64.60
66086;DHT22;52868;49.758;9.586;2022-08-21T05:56:08;20.00;64.60
66086;DHT22;52868;49.758;9.586;2022-08-21T05:58:34;20.00;64.60
66086;DHT22;52868;49.758;9.586;2022-08-21T06:01:01;20.00;64.70
66086;DHT22;52868;49.758;9.586;2022-08-21T06:03:34;20.10;64.70
66086;DHT22;52868;49.758;9.586;2022-08-21T06:06:00;20.10;64.70
66086;DHT22;52868;49.758;9.586;2022-08-21T06:08:27;20.10;64.70
66086;DHT22;52868;49.758;9.586;2022-08-21T06:10:55;20.10;64.80
66086;DHT22;52868;49.758;9.586;2022-08-21T06:13:21;20.00;64.80
66086;DHT22;52868;49.758;9.586;2022-08-21T06:15:47;20.10;64.80
66086;DHT22;52868;49.758;9.586;2022-08-21T06:18:14;20.20;64.60
66086;DHT22;52868;49.758;9.586;2022-08-21T06:20:39;20.20;64.50
66086;DHT22;52868;49.758;9.586;2022-08-21T06:23:05;20.20;64.80
66086;DHT22;52868;49.758;9.586;2022-08-21T06:25:31;20.20;64.80
66086;DHT22;52868;49.758;9.586;2022-08-21T06:28:02;20.20;64.90
66086;DHT22;52868;49.758;9.586;2022-08-21T06:30:28;20.10;64.70
66086;DHT22;52868;49.758;9.586;2022-08-21T06:32:53;20.10;64.80
66086;DHT22;52868;49.758;9.586;2022-08-21T06:35:19;20.10;64.70
66086;DHT22;52868;49.758;9.586;2022-08-21T06:37:45;20.10;64.60
66086;DHT22;52868;49.758;9.586;2022-08-21T06:40:11;20.20;64.60
66086;DHT22;52868;49.758;9.586;2022-08-21T06:42:37;20.20;64.50
66086;DHT22;52868;49.758;9.586;2022-08-21T06:45:03;20.30;64.40
66086;DHT22;52868;49.758;9.586;2022-08-21T06:47:29;20.30;64.50
66086;DHT22;52868;49.758;9.586;2022-08-21T06:49:55;20.30;64.70
66086;DHT22;52868;49.758;9.586;2022-08-21T06:52:20;20.30;64.70
66086;DHT22;52868;49.758;9.586;2022-08-21T06:54:46;20.30;64.80
66086;DHT22;52868;49.758;9.586;2022-08-21T06:57:12;20.40;64.60
66086;DHT22;52868;49.758;9.586;2022-08-21T06:59:37;20.40;64.70
66086;DHT22;52868;49.758;9.586;2022-08-21T07:02:03;20.50;64.60
66086;DHT22;52868;49.758;9.586;2022-08-21T07:04:29;20.60;64.50
66086;DHT22;52868;49.758;9.586;2022-08-21T07:06:55;20.70;64.40
66086;DHT22;52868;49.758;9.586;2022-08-21T07:09:20;20.80;64.30
66086;DHT22;52868;49.758;9.586;2022-08-21T07:11:50;20.80;64.40
66086;DHT22;52868;49.758;9.586;2022-08-21T07:14:16;20.80;64.40
66086;DHT22;52868;49.758;9.586;2022-08-21T07:16:42;20.90;64.30
66086;DHT22;52868;49.758;9.586;2022-08-21T07:19:07;20.90;64.30
66086;DHT22;52868;49.758;9.586;2022-08-21T07:21:33;21.00;64.20
66086;DHT22;52868;49.758;9.586;2022-08-21T07:23:59;21.00;64.40
66086;DHT22;52868;49.758;9.586;2022-08-21T07:26:25;21.10;64.20
66086;DHT22;52868;49.758;9.586;2022-08-21T07:28:52;21.10;64.40
66086;DHT22;52868;49.758;9.586;2022-08-21T07:31:19;21.20;64.30
66086;DHT22;52868;49.758;9.586;2022-08-21T07:33:46;21.20;64.20
66086;DHT22;52868;49.758;9.586;2022-08-21T07:36:12;21.20;64.10
66086;DHT22;52868;49.758;9.586;2022-08-21T07:38:37;21.30;64.10
66086;DHT22;52868;49.758;9.586;2022-08-21T07:41:10;21.30;63.90
66086;DHT22;52868;49.758;9.586;2022-08-21T07:43:38;21.30;64.10
66086;DHT22;52868;49.758;9.586;2022-08-21T07:46:03;21.40;64.00
66086;DHT22;52868;49.758;9.586;2022-08-21T07:48:29;21.40;64.00
66086;DHT22;52868;49.758;9.586;2022-08-21T07:50:55;21.50;63.90
66086;DHT22;52868;49.758;9.586;2022-08-21T07:53:21;21.50;64.20
66086;DHT22;52868;49.758;9.586;2022-08-21T07:55:47;21.50;64.10
66086;DHT22;52868;49.758;9.586;2022-08-21T07:58:13;21.60;63.90
66086;DHT22;52868;49.758;9.586;2022-08-21T08:00:39;21.70;63.80
66086;DHT22;52868;49.758;9.586;2022-08-21T08:03:05;21.70;64.10
66086;DHT22;52868;49.758;9.586;2022-08-21T08:05:31;21.70;64.20
66086;DHT22;52868;49.758;9.586;2022-08-21T08:07:57;21.80;63.80
66086;DHT22;52868;49.758;9.586;2022-08-21T08:10:24;21.80;63.90
66086;DHT22;52868;49.758;9.586;2022-08-21T08:12:50;22.00;63.80
66086;DHT22;52868;49.758;9.586;2022-08-21T08:15:19;22.10;63.60
66086;DHT22;52868;49.758;9.586;2022-08-21T08:17:46;22.30;63.20
66086;DHT22;52868;49.758;9.586;2022-08-21T08:20:14;22.40;63.20
66086;DHT22;52868;49.758;9.586;2022-08-21T08:22:41;22.60;63.00
66086;DHT22;52868;49.758;9.586;2022-08-21T08:25:08;22.70;62.80
66086;DHT22;52868;49.758;9.586;2022-08-21T08:27:34;22.80;62.50
66086;DHT22;52868;49.758;9.586;2022-08-21T08:30:00;22.90;62.10
66086;DHT22;52868;49.758;9.586;2022-08-21T08:32:25;23.10;62.40
66086;DHT22;52868;49.758;9.586;2022-08-21T08:34:51;23.20;62.20
66086;DHT22;52868;49.758;9.586;2022-08-21T08:37:19;23.30;61.90
66086;DHT22;52868;49.758;9.586;2022-08-21T08:39:46;23.30;61.60
66086;DHT22;52868;49.758;9.586;2022-08-21T08:42:14;23.40;61.90
66086;DHT22;52868;49.758;9.586;2022-08-21T08:44:42;23.50;61.60
66086;DHT22;52868;49.758;9.586;2022-08-21T08:47:09;23.60;61.60
66086;DHT22;52868;49.758;9.586;2022-08-21T08:50:17;23.70;61.60
66086;DHT22;52868;49.758;9.586;2022-08-21T08:52:48;23.80;61.60
66086;DHT22;52868;49.758;9.586;2022-08-21T08:55:26;23.80;61.40
66086;DHT22;52868;49.758;9.586;2022-08-21T08:57:54;23.90;61.30
66086;DHT22;52868;49.758;9.586;2022-08-21T09:00:22;24.00;60.90
66086;DHT22;52868;49.758;9.586;2022-08-21T09:02:52;24.00;61.10
66086;DHT22;52868;49.758;9.586;2022-08-21T09:05:24;24.10;60.80
66086;DHT22;52868;49.758;9.586;2022-08-21T09:10:38;24.30;60.20
66086;DHT22;52868;49.758;9.586;2022-08-21T09:13:21;24.30;59.90
66086;DHT22;52868;49.758;9.586;2022-08-21T09:29:31;24.80;58.10
66086;DHT22;52868;49.758;9.586;2022-08-21T09:31:58;24.90;57.80
66086;DHT22;52868;49.758;9.586;2022-08-21T09:34:26;24.90;56.60
66086;DHT22;52868;49.758;9.586;2022-08-21T09:36:54;24.90;56.70
66086;DHT22;52868;49.758;9.586;2022-08-21T09:42:00;24.90;56.40
66086;DHT22;52868;49.758;9.586;2022-08-21T09:44:29;24.90;56.30
66086;DHT22;52868;49.758;9.586;2022-08-21T09:46:55;25.00;56.70
66086;DHT22;52868;49.758;9.586;2022-08-21T09:49:35;25.00;56.80
66086;DHT22;52868;49.758;9.586;2022-08-21T09:52:03;25.00;56.90
66086;DHT22;52868;49.758;9.586;2022-08-21T09:54:32;25.10;56.50
66086;DHT22;52868;49.758;9.586;2022-08-21T09:57:16;25.20;56.10
66086;DHT22;52868;49.758;9.586;2022-08-21T10:00:25;25.10;55.60
66086;DHT22;52868;49.758;9.586;2022-08-21T10:02:52;25.20;55.20
66086;DHT22;52868;49.758;9.586;2022-08-21T10:05:22;25.20;54.90
66086;DHT22;52868;49.758;9.586;2022-08-21T10:07:50;25.20;54.60
66086;DHT22;52868;49.758;9.586;2022-08-21T10:16:05;25.20;55.40
66086;DHT22;52868;49.758;9.586;2022-08-21T10:18:41;25.20;55.20
66086;DHT22;52868;49.758;9.586;2022-08-21T10:21:27;25.30;53.70
66086;DHT22;52868;49.758;9.586;2022-08-21T10:24:18;25.30;53.90
66086;DHT22;52868;49.758;9.586;2022-08-21T10:29:32;25.40;52.70
66086;DHT22;52868;49.758;9.586;2022-08-21T10:32:24;25.40;52.20
66086;DHT22;52868;49.758;9.586;2022-08-21T10:40:26;25.40;51.60
66086;DHT22;52868;49.758;9.586;2022-08-21T10:43:04;25.40;52.10
66086;DHT22;52868;49.758;9.586;2022-08-21T10:48:12;25.50;51.90
66086;DHT22;52868;49.758;9.586;2022-08-21T10:50:50;25.50;50.90
66086;DHT22;52868;49.758;9.586;2022-08-21T10:55:56;25.50;50.50
66086;DHT22;52868;49.758;9.586;2022-08-21T11:01:22;25.50;50.20
66086;DHT22;52868;49.758;9.586;2022-08-21T11:03:46;25.50;50.40
66086;DHT22;52868;49.758;9.586;2022-08-21T11:06:25;25.60;50.30
66086;DHT22;52868;49.758;9.586;2022-08-21T11:08:59;25.60;50.30
66086;DHT22;52868;49.758;9.586;2022-08-21T11:11:39;25.60;49.40
66086;DHT22;52868;49.758;9.586;2022-08-21T11:14:34;25.60;49.00
66086;DHT22;52868;49.758;9.586;2022-08-21T11:17:12;25.70;48.40
66086;DHT22;52868;49.758;9.586;2022-08-21T11:19:48;25.70;48.40
66086;DHT22;52868;49.758;9.586;2022-08-21T11:22:33;25.70;48.10
66086;DHT22;52868;49.758;9.586;2022-08-21T11:25:50;25.70;49.00
66086;DHT22;52868;49.758;9.586;2022-08-21T11:30:20;25.60;47.40
66086;DHT22;52868;49.758;9.586;2022-08-21T11:33:24;25.60;48.50
66086;DHT22;52868;49.758;9.586;2022-08-21T11:35:59;25.50;48.60
66086;DHT22;52868;49.758;9.586;2022-08-21T11:38:44;25.50;48.60
66086;DHT22;52868;49.758;9.586;2022-08-21T11:41:33;25.60;48.50
66086;DHT22;52868;49.758;9.586;2022-08-21T11:44:43;25.60;47.60
66086;DHT22;52868;49.758;9.586;2022-08-21T11:50:18;25.70;47.70
66086;DHT22;52868;49.758;9.586;2022-08-21T11:52:53;25.70;47.40
66086;DHT22;52868;49.758;9.586;2022-08-21T11:55:26;25.70;48.10
66086;DHT22;52868;49.758;9.586;2022-08-21T11:58:07;25.70;47.40
66086;DHT22;52868;49.758;9.586;2022-08-21T12:00:46;25.70;47.90
66086;DHT22;52868;49.758;9.586;2022-08-21T12:03:36;25.70;48.00
66086;DHT22;52868;49.758;9.586;2022-08-21T12:06:09;25.70;47.10
66086;DHT22;52868;49.758;9.586;2022-08-21T12:08:40;25.80;47.10
66086;DHT22;52868;49.758;9.586;2022-08-21T12:11:23;25.70;47.30
66086;DHT22;52868;49.758;9.586;2022-08-21T12:14:14;25.80;47.50
66086;DHT22;52868;49.758;9.586;2022-08-21T12:16:42;25.80;46.50
66086;DHT22;52868;49.758;9.586;2022-08-21T12:19:38;25.70;46.40
66086;DHT22;52868;49.758;9.586;2022-08-21T12:24:37;25.80;45.70
66086;DHT22;52868;49.758;9.586;2022-08-21T12:27:30;25.80;45.50
66086;DHT22;52868;49.758;9.586;2022-08-21T12:30:02;25.80;45.00
66086;DHT22;52868;49.758;9.586;2022-08-21T12:35:17;25.80;44.90
66086;DHT22;52868;49.758;9.586;2022-08-21T12:37:56;25.80;45.40
66086;DHT22;52868;49.758;9.586;2022-08-21T12:43:33;25.80;45.70
66086;DHT22;52868;49.758;9.586;2022-08-21T12:45:59;25.90;44.60
66086;DHT22;52868;49.758;9.586;2022-08-21T12:51:22;25.80;43.20
66086;DHT22;52868;49.758;9.586;2022-08-21T12:53:59;25.80;43.20
66086;DHT22;52868;49.758;9.586;2022-08-21T12:56:27;25.80;43.50
66086;DHT22;52868;49.758;9.586;2022-08-21T12:59:05;25.80;43.90
66086;DHT22;52868;49.758;9.586;2022-08-21T13:01:38;25.80;43.60
66086;DHT22;52868;49.758;9.586;2022-08-21T13:04:11;25.80;44.40
66086;DHT22;52868;49.758;9.586;2022-08-21T13:06:40;25.80;44.20
66086;DHT22;52868;49.758;9.586;2022-08-21T13:09:11;25.80;44.10
66086;DHT22;52868;49.758;9.586;2022-08-21T13:11:37;25.80;44.40
66086;DHT22;52868;49.758;9.586;2022-08-21T13:14:06;25.80;44.60
66086;DHT22;52868;49.758;9.586;2022-08-21T13:16:36;25.90;44.50
66086;DHT22;52868;49.758;9.586;2022-08-21T13:19:06;25.90;44.80
66086;DHT22;52868;49.758;9.586;2022-08-21T13:21:40;26.00;44.80
66086;DHT22;52868;49.758;9.586;2022-08-21T13:24:19;26.00;44.70
66086;DHT22;52868;49.758;9.586;2022-08-21T13:26:47;26.00;44.90
66086;DHT22;52868;49.758;9.586;2022-08-21T13:29:18;25.90;44.90
66086;DHT22;52868;49.758;9.586;2022-08-21T13:31:52;26.00;44.70
66086;DHT22;52868;49.758;9.586;2022-08-21T13:34:30;25.90;44.80
66086;DHT22;52868;49.758;9.586;2022-08-21T13:37:00;25.80;45.10
66086;DHT22;52868;49.758;9.586;2022-08-21T13:39:26;25.80;45.10
66086;DHT22;52868;49.758;9.586;2022-08-21T13:41:59;25.90;45.00
66086;DHT22;52868;49.758;9.586;2022-08-21T13:44:39;25.90;44.80
66086;DHT22;52868;49.758;9.586;2022-08-21T13:47:06;26.00;44.20
66086;DHT22;52868;49.758;9.586;2022-08-21T13:49:38;25.90;44.00
66086;DHT22;52868;49.758;9.586;2022-08-21T13:52:13;26.00;44.00
66086;DHT22;52868;49.758;9.586;2022-08-21T13:54:41;25.90;44.30
66086;DHT22;52868;49.758;9.586;2022-08-21T13:57:18;25.90;44.60
66086;DHT22;52868;49.758;9.586;2022-08-21T13:59:45;25.90;44.50
66086;DHT22;52868;49.758;9.586;2022-08-21T14:07:24;25.90;44.70
66086;DHT22;52868;49.758;9.586;2022-08-21T14:09:51;25.90;44.60
66086;DHT22;52868;49.758;9.586;2022-08-21T14:12:24;25.90;44.80
66086;DHT22;52868;49.758;9.586;2022-08-21T14:14:52;25.90;44.70
66086;DHT22;52868;49.758;9.586;2022-08-21T14:17:31;25.90;44.60
66086;DHT22;52868;49.758;9.586;2022-08-21T14:19:57;25.90;44.70
66086;DHT22;52868;49.758;9.586;2022-08-21T14:24:48;25.90;45.00
66086;DHT22;52868;49.758;9.586;2022-08-21T14:27:17;25.90;45.10
66086;DHT22;52868;49.758;9.586;2022-08-21T14:29:43;25.80;45.20
66086;DHT22;52868;49.758;9.586;2022-08-21T14:32:22;25.80;45.10
66086;DHT22;52868;49.758;9.586;2022-08-21T14:34:50;25.80;45.10
66086;DHT22;52868;49.758;9.586;2022-08-21T14:37:15;25.80;45.30
66086;DHT22;52868;49.758;9.586;2022-08-21T14:39:41;25.80;45.20
66086;DHT22;52868;49.758;9.586;2022-08-21T14:42:07;25.90;45.20
66086;DHT22;52868;49.758;9.586;2022-08-21T14:44:33;26.00;44.80
66086;DHT22;52868;49.758;9.586;2022-08-21T14:46:59;25.90;45.00
66086;DHT22;52868;49.758;9.586;2022-08-21T14:49:27;26.10;44.70
66086;DHT22;52868;49.758;9.586;2022-08-21T14:51:53;26.10;44.50
66086;DHT22;52868;49.758;9.586;2022-08-21T14:54:27;26.10;44.80
66086;DHT22;52868;49.758;9.586;2022-08-21T14:56:52;26.00;45.00
66086;DHT22;52868;49.758;9.586;2022-08-21T14:59:20;26.00;45.10
66086;DHT22;52868;49.758;9.586;2022-08-21T15:01:46;26.10;44.80
66086;DHT22;52868;49.758;9.586;2022-08-21T15:04:12;26.10;44.90
66086;DHT22;52868;49.758;9.586;2022-08-21T15:06:38;26.10;44.90
66086;DHT22;52868;49.758;9.586;2022-08-21T15:09:03;26.10;45.00
66086;DHT22;52868;49.758;9.586;2022-08-21T15:11:32;26.10;44.40
66086;DHT22;52868;49.758;9.586;2022-08-21T15:14:02;26.10;44.80
66086;DHT22;52868;49.758;9.586;2022-08-21T15:16:29;26.10;44.70
66086;DHT22;52868;49.758;9.586;2022-08-21T15:18:56;26.10;44.80
66086;DHT22;52868;49.758;9.586;2022-08-21T15:21:22;26.10;44.10
66086;DHT22;52868;49.758;9.586;2022-08-21T15:23:47;26.20;44.00
66086;DHT22;52868;49.758;9.586;2022-08-21T15:26:13;26.10;44.30
66086;DHT22;52868;49.758;9.586;2022-08-21T15:28:39;26.10;43.90
66086;DHT22;52868;49.758;9.586;2022-08-21T15:31:05;26.10;44.00
66086;DHT22;52868;49.758;9.586;2022-08-21T15:33:31;26.20;44.00
66086;DHT22;52868;49.758;9.586;2022-08-21T15:35:57;26.20;43.80
66086;DHT22;52868;49.758;9.586;2022-08-21T15:38:23;26.20;43.80
66086;DHT22;52868;49.758;9.586;2022-08-21T15:40:49;26.20;43.60
66086;DHT22;52868;49.758;9.586;2022-08-21T15:45:47;26.10;44.00
66086;DHT22;52868;49.758;9.586;2022-08-21T15:48:12;26.10;44.10
66086;DHT22;52868;49.758;9.586;2022-08-21T15:50:38;26.10;44.00
66086;DHT22;52868;49.758;9.586;2022-08-21T15:53:03;26.20;43.90
66086;DHT22;52868;49.758;9.586;2022-08-21T15:55:29;26.10;43.90
66086;DHT22;52868;49.758;9.586;2022-08-21T15:57:57;26.10;44.00
66086;DHT22;52868;49.758;9.586;2022-08-21T16:00:24;26.10;43.90
66086;DHT22;52868;49.758;9.586;2022-08-21T16:02:53;26.00;44.10
66086;DHT22;52868;49.758;9.586;2022-08-21T16:05:20;26.00;43.60
66086;DHT22;52868;49.758;9.586;2022-08-21T16:07:47;26.00;43.80
66086;DHT22;52868;49.758;9.586;2022-08-21T16:10:14;26.00;43.80
66086;DHT22;52868;49.758;9.586;2022-08-21T16:13:01;26.00;43.70
66086;DHT22;52868;49.758;9.586;2022-08-21T16:15:27;26.00;43.30
66086;DHT22;52868;49.758;9.586;2022-08-21T16:17:53;26.00;43.00
66086;DHT22;52868;49.758;9.586;2022-08-21T16:20:25;26.00;42.70
66086;DHT22;52868;49.758;9.586;2022-08-21T16:22:53;26.10;42.60
66086;DHT22;52868;49.758;9.586;2022-08-21T16:25:19;26.00;42.30
66086;DHT22;52868;49.758;9.586;2022-08-21T16:27:48;26.10;42.20
66086;DHT22;52868;49.758;9.586;2022-08-21T16:30:15;26.00;42.30
66086;DHT22;52868;49.758;9.586;2022-08-21T16:32:42;26.10;42.70
66086;DHT22;52868;49.758;9.586;2022-08-21T16:35:12;26.00;42.20
66086;DHT22;52868;49.758;9.586;2022-08-21T16:37:39;26.00;42.50
66086;DHT22;52868;49.758;9.586;2022-08-21T16:40:06;26.00;42.30
66086;DHT22;52868;49.758;9.586;2022-08-21T16:42:34;26.00;42.30
66086;DHT22;52868;49.758;9.586;2022-08-21T16:45:01;26.00;42.30
66086;DHT22;52868;49.758;9.586;2022-08-21T16:47:29;26.00;42.20
66086;DHT22;52868;49.758;9.586;2022-08-21T16:49:56;25.90;42.20
66086;DHT22;52868;49.758;9.586;2022-08-21T16:52:22;26.00;42.30